createdAt,value
2023-05-14T00:00:29.893Z,98024.88
2023-05-14T00:03:59.981Z,98023.16
2023-05-14T00:07:33.189Z,98020.69
2023-05-14T00:16:27.291Z,98014.22
2023-05-14T00:19:51.765Z,98013.00
2023-05-14T00:23:11.625Z,98012.06
2023-05-14T00:26:16.889Z,98016.70
2023-05-14T00:30:02.854Z,98015.23
2023-05-14T00:33:08.459Z,98011.54
2023-05-14T00:36:40.767Z,98010.17
2023-05-14T00:40:01.317Z,98011.28
2023-05-14T00:43:06.693Z,98012.84
2023-05-14T00:46:12.660Z,98014.23
2023-05-14T00:49:18.999Z,98016.15
2023-05-14T00:52:46.191Z,98011.55
2023-05-14T00:56:03.973Z,98012.08
2023-05-14T00:59:09.728Z,98018.57
2023-05-14T01:02:27.937Z,98019.81
2023-05-14T01:06:26.559Z,98023.65
2023-05-14T01:09:46.333Z,98024.34
2023-05-14T01:13:09.616Z,98020.21
2023-05-14T01:16:16.968Z,98017.85
2023-05-14T01:19:48.327Z,98020.27
2023-05-14T01:22:56.862Z,98021.88
2023-05-14T01:26:04.516Z,98019.95
2023-05-14T01:29:22.039Z,98019.41
2023-05-14T01:32:34.741Z,98017.12
2023-05-14T01:35:40.736Z,98015.44
2023-05-14T01:38:49.882Z,98012.62
2023-05-14T01:41:59.612Z,98008.77
2023-05-14T01:45:07.560Z,97998.52
2023-05-14T01:48:17.216Z,98002.77
2023-05-14T01:51:37.146Z,97996.66
2023-05-14T01:54:44.640Z,97999.05
2023-05-14T01:57:57.207Z,97991.56
2023-05-14T02:01:23.099Z,97989.58
2023-05-14T02:04:30.325Z,97984.79
2023-05-14T02:07:38.910Z,97984.78
2023-05-14T02:11:18.833Z,97976.45
2023-05-14T02:14:29.830Z,97973.98
2023-05-14T02:17:57.270Z,97970.95
2023-05-14T02:21:26.155Z,97975.86
2023-05-14T02:24:54.326Z,97967.61
2023-05-14T02:28:26.466Z,97959.50
2023-05-14T02:31:39.648Z,97954.58
2023-05-14T02:34:47.486Z,97959.35
2023-05-14T02:37:52.263Z,97957.73
2023-05-14T02:40:55.053Z,97958.16
2023-05-14T02:44:05.776Z,97959.25
2023-05-14T02:47:10.861Z,97953.13
2023-05-14T02:50:13.874Z,97947.10
2023-05-14T02:53:16.803Z,97949.36
2023-05-14T02:56:35.629Z,97946.44
2023-05-14T02:59:45.561Z,97949.27
2023-05-14T03:03:17.062Z,97946.08
2023-05-14T03:06:40.711Z,97940.35
2023-05-14T03:10:12.876Z,97933.21
2023-05-14T03:13:28.636Z,97924.32
2023-05-14T03:16:33.566Z,97925.42
2023-05-14T03:19:44.695Z,97922.25
2023-05-14T03:27:53.243Z,97921.77
2023-05-14T03:31:02.367Z,97924.79
2023-05-14T03:34:06.395Z,97927.28
2023-05-14T03:37:24.654Z,97925.93
2023-05-14T03:40:36.601Z,97929.94
2023-05-14T03:43:43.519Z,97929.14
2023-05-14T03:46:50.935Z,97931.63
2023-05-14T03:49:58.568Z,97935.64
2023-05-14T03:53:17.225Z,97927.34
2023-05-14T03:56:26.355Z,97924.52
2023-05-14T03:59:36.206Z,97927.23
2023-05-14T04:02:41.402Z,97930.48
2023-05-14T04:05:46.491Z,97935.85
2023-05-14T04:08:54.244Z,97935.68
2023-05-14T04:12:01.286Z,97940.83
2023-05-14T04:15:05.854Z,97943.59
2023-05-14T04:18:20.277Z,97943.52
2023-05-14T04:21:25.248Z,97942.23
2023-05-14T04:24:36.553Z,97946.45
2023-05-14T04:27:40.770Z,97943.74
2023-05-14T04:30:53.528Z,97938.48
2023-05-14T04:33:57.280Z,97936.74
2023-05-14T04:37:00.086Z,97937.80
2023-05-14T04:40:06.196Z,97943.72
2023-05-14T04:43:09.474Z,97946.20
2023-05-14T04:46:28.959Z,97947.90
2023-05-14T04:49:33.839Z,97949.95
2023-05-14T04:53:01.842Z,97953.38
2023-05-14T04:56:08.452Z,97953.20
2023-05-14T04:59:13.807Z,97951.23
2023-05-14T05:02:18.042Z,97948.42
2023-05-14T05:05:25.042Z,97943.77
2023-05-14T05:08:29.488Z,97944.71
2023-05-14T05:11:32.419Z,97946.64
2023-05-14T05:14:35.307Z,97945.63
2023-05-14T05:17:40.588Z,97946.38
2023-05-14T05:20:47.494Z,97949.23
2023-05-14T05:23:51.060Z,97944.33
2023-05-14T05:26:55.835Z,97937.50
2023-05-14T05:29:59.137Z,97931.52
2023-05-14T05:33:02.121Z,97924.25
2023-05-14T05:36:10.068Z,97920.65
2023-05-14T05:39:35.000Z,97917.48
2023-05-14T05:42:48.802Z,97915.84
2023-05-14T05:46:12.060Z,97917.92
2023-05-14T05:49:15.018Z,97918.34
2023-05-14T05:52:17.803Z,97918.95
2023-05-14T05:55:20.802Z,97908.31
2023-05-14T05:58:24.199Z,97909.17
2023-05-14T06:01:27.384Z,97902.53
2023-05-14T06:04:38.828Z,97901.35
2023-05-14T06:07:49.912Z,97899.11
2023-05-14T06:10:55.787Z,97895.98
2023-05-14T06:13:58.661Z,97900.33
2023-05-14T06:17:03.786Z,97899.83
2023-05-14T06:20:10.074Z,97904.93
2023-05-14T06:23:35.233Z,97909.64
2023-05-14T06:26:39.972Z,97907.59
2023-05-14T06:30:01.201Z,97907.88
2023-05-14T06:33:40.720Z,97912.56
2023-05-14T06:37:08.136Z,97912.55
2023-05-14T06:40:24.800Z,97915.89
2023-05-14T06:43:41.092Z,97911.33
2023-05-14T06:46:48.774Z,97909.73
2023-05-14T06:50:01.198Z,97914.98
2023-05-14T06:53:04.892Z,97914.77
2023-05-14T06:56:08.053Z,97916.45
2023-05-14T06:59:40.513Z,97920.77
2023-05-14T07:02:45.742Z,97918.29
2023-05-14T07:05:56.160Z,97913.31
2023-05-14T07:09:01.999Z,97913.86
2023-05-14T07:12:10.028Z,97908.87
2023-05-14T07:15:21.253Z,97897.82
2023-05-14T07:18:26.064Z,97891.09
2023-05-14T07:21:29.584Z,97894.77
2023-05-14T07:24:32.483Z,97886.20
2023-05-14T07:27:44.604Z,97881.89
2023-05-14T07:31:06.003Z,97877.39
2023-05-14T07:34:11.757Z,97873.25
2023-05-14T07:37:14.794Z,97873.63
2023-05-14T07:40:48.612Z,97866.92
2023-05-14T07:44:11.552Z,97856.05
2023-05-14T07:47:18.297Z,97852.34
2023-05-14T07:50:27.619Z,97846.74
2023-05-14T07:53:50.688Z,97839.52
2023-05-14T07:56:53.732Z,97838.38
2023-05-14T07:59:57.135Z,97834.94
2023-05-14T08:03:00.178Z,97832.05
2023-05-14T08:06:07.228Z,97836.73
2023-05-14T08:09:17.600Z,97834.41
2023-05-14T08:12:25.642Z,97831.05
2023-05-14T08:16:11.565Z,97826.42
2023-05-14T08:19:15.193Z,97823.36
2023-05-14T08:22:20.919Z,97819.00
2023-05-14T08:25:25.797Z,97816.88
2023-05-14T08:28:28.734Z,97815.36
2023-05-14T08:31:58.258Z,97814.42
2023-05-14T08:35:32.273Z,97811.86
2023-05-14T08:38:58.695Z,97808.31
2023-05-14T08:42:21.952Z,97810.80
2023-05-14T08:45:34.169Z,97808.48
2023-05-14T08:48:49.220Z,97809.95
2023-05-14T08:51:54.739Z,97810.06
2023-05-14T08:55:00.749Z,97808.65
2023-05-14T08:58:07.464Z,97810.95
2023-05-14T09:01:10.318Z,97807.02
2023-05-14T09:04:16.709Z,97807.91
2023-05-14T09:07:55.023Z,97812.14
2023-05-14T09:11:02.044Z,97809.95
2023-05-14T09:14:33.319Z,97813.80
2023-05-14T09:17:42.340Z,97815.18
2023-05-14T09:21:08.191Z,97813.44
2023-05-14T09:25:03.522Z,97811.45
2023-05-14T09:28:17.632Z,97807.02
2023-05-14T09:31:27.515Z,97804.58
2023-05-14T09:34:41.670Z,97799.58
2023-05-14T09:37:47.156Z,97798.77
2023-05-14T09:40:51.950Z,97790.71
2023-05-14T09:43:56.923Z,97792.81
2023-05-14T09:47:00.157Z,97788.64
2023-05-14T09:50:09.773Z,97781.21
2023-05-14T09:53:18.610Z,97777.48
2023-05-14T09:56:26.931Z,97775.91
2023-05-14T09:59:36.749Z,97768.81
2023-05-14T10:02:43.878Z,97769.39
2023-05-14T10:05:51.494Z,97763.83
2023-05-14T10:08:57.357Z,97755.42
2023-05-14T10:12:01.456Z,97751.02
2023-05-14T10:15:43.715Z,97745.51
2023-05-14T10:19:05.161Z,97736.77
2023-05-14T10:22:22.385Z,97734.20
2023-05-14T10:25:31.563Z,97732.10
2023-05-14T10:28:36.772Z,97731.23
2023-05-14T10:31:54.266Z,97731.86
2023-05-14T10:35:25.495Z,97727.80
2023-05-14T10:38:35.224Z,97718.05
2023-05-14T10:41:43.698Z,97728.38
2023-05-14T10:44:57.781Z,97727.59
2023-05-14T10:48:16.697Z,97720.79
2023-05-14T10:51:28.712Z,97712.66
2023-05-14T10:54:35.986Z,97711.81
2023-05-14T10:57:46.347Z,97709.63
2023-05-14T11:01:15.408Z,97716.56
2023-05-14T11:04:42.571Z,97715.42
2023-05-14T11:07:50.647Z,97711.25
2023-05-14T11:10:56.541Z,97706.05
2023-05-14T11:14:01.358Z,97708.62
2023-05-14T11:17:10.660Z,97710.15
2023-05-14T11:20:16.883Z,97709.02
2023-05-14T11:23:25.372Z,97695.50
2023-05-14T11:26:32.472Z,97692.02
2023-05-14T11:29:46.298Z,97692.66
2023-05-14T11:33:04.624Z,97687.02
2023-05-14T11:36:17.752Z,97685.66
2023-05-14T11:39:22.433Z,97675.73
2023-05-14T11:42:27.492Z,97670.94
2023-05-14T11:45:33.153Z,97675.69
2023-05-14T11:48:36.508Z,97666.04
2023-05-14T11:51:41.044Z,97668.17
2023-05-14T11:54:49.741Z,97657.25
2023-05-14T11:57:57.227Z,97654.79
2023-05-14T12:01:04.387Z,97646.88
2023-05-14T12:04:14.472Z,97642.65
2023-05-14T12:07:29.495Z,97638.05
2023-05-14T12:10:42.194Z,97635.05
2023-05-14T12:13:52.907Z,97644.31
2023-05-14T12:16:59.549Z,97642.22
2023-05-14T12:20:04.254Z,97632.25
2023-05-14T12:23:12.391Z,97632.40
2023-05-14T12:26:16.702Z,97625.13
2023-05-14T12:29:28.159Z,97617.77
2023-05-14T12:32:36.873Z,97606.07
2023-05-14T12:35:43.097Z,97606.16
2023-05-14T12:39:04.378Z,97603.59
2023-05-14T12:42:40.800Z,97604.42
2023-05-14T12:45:56.172Z,97606.38
2023-05-14T12:49:26.643Z,97605.77
2023-05-14T12:52:53.091Z,97604.18
2023-05-14T12:56:01.414Z,97601.59
2023-05-14T12:59:05.938Z,97600.05
2023-05-14T13:02:10.834Z,97587.80
2023-05-14T13:05:33.888Z,97583.45
2023-05-14T13:08:40.547Z,97568.95
2023-05-14T13:11:45.353Z,97566.27
2023-05-14T13:14:50.167Z,97566.04
2023-05-14T13:17:56.630Z,97567.46
2023-05-14T13:21:05.831Z,97562.22
2023-05-14T13:24:20.957Z,97558.30
2023-05-14T13:27:28.509Z,97551.23
2023-05-14T13:30:39.053Z,97541.46
2023-05-14T13:33:54.834Z,97537.29
2023-05-14T13:37:00.926Z,97535.45
2023-05-14T13:40:28.439Z,97529.13
2023-05-14T13:43:47.111Z,97526.89
2023-05-14T13:47:09.708Z,97527.55
2023-05-14T13:50:23.045Z,97521.63
2023-05-14T13:56:59.858Z,97508.98
2023-05-14T14:00:08.945Z,97497.25
2023-05-14T14:03:13.713Z,97499.02
2023-05-14T14:06:35.444Z,97491.07
2023-05-14T14:10:02.504Z,97485.05
2023-05-14T14:13:19.040Z,97483.30
2023-05-14T14:16:28.226Z,97481.73
2023-05-14T14:19:40.821Z,97465.76
2023-05-14T14:23:08.121Z,97466.34
2023-05-14T14:26:17.857Z,97462.76
2023-05-14T14:29:51.321Z,97452.73
2023-05-14T14:33:07.430Z,97448.47
2023-05-14T14:36:22.031Z,97436.81
2023-05-14T14:39:29.168Z,97432.37
2023-05-14T14:42:38.870Z,97432.91
2023-05-14T14:45:49.473Z,97432.79
2023-05-14T14:49:02.369Z,97431.15
2023-05-14T14:52:29.828Z,97430.79
2023-05-14T14:55:55.630Z,97428.92
2023-05-14T14:59:17.636Z,97425.16
2023-05-14T15:02:28.700Z,97424.17
2023-05-14T15:05:40.521Z,97423.67
2023-05-14T15:09:01.100Z,97419.88
2023-05-14T15:12:25.157Z,97416.98
2023-05-14T15:15:40.539Z,97416.56
2023-05-14T15:18:48.323Z,97413.64
2023-05-14T15:22:00.548Z,97410.55
2023-05-14T15:25:58.871Z,97407.97
2023-05-14T15:29:09.365Z,97408.01
2023-05-14T15:32:19.656Z,97408.48
2023-05-14T15:35:41.608Z,97413.01
2023-05-14T15:38:52.136Z,97409.73
2023-05-14T15:42:16.978Z,97405.64
2023-05-14T15:45:19.860Z,97405.39
2023-05-14T15:48:30.580Z,97400.80
2023-05-14T15:51:42.170Z,97403.70
2023-05-14T15:54:48.393Z,97409.86
2023-05-14T15:57:56.401Z,97418.40
2023-05-14T16:01:09.496Z,97416.11
2023-05-14T16:04:17.932Z,97413.30
2023-05-14T16:07:36.828Z,97405.62
2023-05-14T16:10:55.749Z,97399.67
2023-05-14T16:14:04.722Z,97396.66
2023-05-14T16:17:32.439Z,97399.23
2023-05-14T16:20:43.556Z,97399.98
2023-05-14T16:24:10.674Z,97407.33
2023-05-14T16:27:27.522Z,97413.14
2023-05-14T16:30:32.205Z,97414.25
2023-05-14T16:33:42.086Z,97412.63
2023-05-14T16:37:00.934Z,97411.84
2023-05-14T16:40:03.962Z,97412.29
2023-05-14T16:43:07.006Z,97409.89
2023-05-14T16:46:10.498Z,97407.13
2023-05-14T16:49:15.302Z,97408.84
2023-05-14T16:52:18.614Z,97408.71
2023-05-14T16:55:22.019Z,97415.75
2023-05-14T16:58:28.651Z,97417.42
2023-05-14T17:01:40.787Z,97414.40
2023-05-14T17:04:46.767Z,97418.27
2023-05-14T17:10:53.749Z,97408.52
2023-05-14T17:14:31.778Z,97400.64
2023-05-14T17:18:09.231Z,97406.67
2023-05-14T17:21:12.222Z,97403.46
2023-05-14T17:24:30.375Z,97403.67
2023-05-14T17:28:15.913Z,97394.80
2023-05-14T17:31:59.169Z,97388.44
2023-05-14T17:39:26.193Z,97381.74
2023-05-14T18:23:36.892Z,97383.79
2023-05-14T18:27:04.080Z,97385.36
2023-05-14T18:41:06.673Z,97398.27
2023-05-14T18:44:09.555Z,97397.41
2023-05-14T18:47:13.620Z,97391.43
2023-05-14T18:50:16.530Z,97396.45
2023-05-14T18:53:19.515Z,97397.10
2023-05-14T18:56:23.260Z,97400.17
2023-05-14T18:59:27.834Z,97403.86
2023-05-14T19:02:31.032Z,97412.22
2023-05-14T19:05:45.649Z,97415.98
2023-05-14T19:08:48.571Z,97415.96
2023-05-14T19:11:51.597Z,97417.33
2023-05-14T19:14:54.624Z,97409.24
2023-05-14T19:17:57.819Z,97410.27
2023-05-14T19:21:01.365Z,97408.15
2023-05-14T19:24:12.190Z,97406.67
2023-05-14T19:27:17.427Z,97401.84
2023-05-14T19:30:23.425Z,97395.42
2023-05-14T19:33:27.777Z,97391.35
2023-05-14T19:36:36.236Z,97388.27
2023-05-14T19:39:39.314Z,97379.22
2023-05-14T19:42:44.048Z,97376.71
2023-05-14T19:45:48.730Z,97371.50
2023-05-14T19:48:53.535Z,97363.83
2023-05-14T19:51:56.317Z,97364.15
2023-05-14T19:55:00.388Z,97369.66
2023-05-14T19:58:11.831Z,97364.77
2023-05-14T20:01:36.707Z,97357.90
2023-05-14T20:05:11.981Z,97347.56
2023-05-14T20:08:16.807Z,97336.16
2023-05-14T20:11:19.730Z,97321.08
2023-05-14T20:14:22.573Z,97311.28
2023-05-14T20:17:25.579Z,97298.56
2023-05-14T20:20:31.143Z,97286.77
2023-05-14T20:23:38.490Z,97275.59
2023-05-14T20:26:43.209Z,97267.22
2023-05-14T20:29:46.854Z,97256.11
2023-05-14T20:32:50.338Z,97244.42
2023-05-14T20:36:21.008Z,97234.09
2023-05-14T20:39:25.306Z,97230.30
2023-05-14T20:42:28.964Z,97221.06
2023-05-14T20:45:32.008Z,97212.45
2023-05-14T20:48:34.955Z,97204.34
2023-05-14T20:51:40.103Z,97197.31
2023-05-14T20:54:44.170Z,97195.09
2023-05-14T20:57:47.121Z,97192.21
2023-05-14T21:00:50.024Z,97184.55
2023-05-14T21:03:53.155Z,97180.77
2023-05-14T21:06:58.081Z,97181.44
2023-05-14T21:10:03.983Z,97177.86
2023-05-14T21:13:10.142Z,97178.36
2023-05-14T21:16:13.127Z,97173.29
2023-05-14T21:19:16.259Z,97169.56
2023-05-14T21:22:19.205Z,97161.95
2023-05-14T21:25:23.304Z,97156.43
2023-05-14T21:28:27.319Z,97148.69
2023-05-14T21:31:31.000Z,97143.07
2023-05-14T21:34:39.899Z,97145.71
2023-05-14T21:37:43.864Z,97149.06
2023-05-14T21:40:48.923Z,97146.54
2023-05-14T21:43:51.892Z,97140.98
2023-05-14T21:46:54.926Z,97139.77
2023-05-14T21:49:59.818Z,97136.44
2023-05-14T21:53:04.617Z,97129.92
2023-05-14T21:56:09.303Z,97122.51
2023-05-14T21:59:12.293Z,97122.34
2023-05-14T22:02:15.152Z,97122.38
2023-05-14T22:05:22.686Z,97120.02
2023-05-14T22:08:27.790Z,97111.91
2023-05-14T22:11:30.612Z,97111.36
2023-05-14T22:14:35.521Z,97123.95
2023-05-14T22:17:39.031Z,97126.30
2023-05-14T22:20:43.022Z,97114.86
2023-05-14T22:23:49.896Z,97112.94
2023-05-14T22:26:54.800Z,97112.61
2023-05-14T22:30:04.040Z,97113.60
2023-05-14T22:33:14.237Z,97103.53
2023-05-14T22:36:26.021Z,97085.88
2023-05-14T22:39:32.842Z,97077.06
2023-05-14T22:45:44.228Z,97068.19
2023-05-14T22:49:16.049Z,97064.45
2023-05-14T22:52:34.879Z,97061.84
2023-05-14T22:55:39.001Z,97050.64
2023-05-14T22:58:41.940Z,97050.72
2023-05-14T23:01:45.226Z,97044.20
2023-05-14T23:04:48.375Z,97051.54
2023-05-14T23:08:02.820Z,97050.03
2023-05-14T23:11:06.676Z,97050.43
2023-05-14T23:14:09.558Z,97042.46
2023-05-14T23:17:14.474Z,97033.59
2023-05-14T23:20:17.753Z,97029.39
2023-05-14T23:23:26.094Z,97022.73
2023-05-14T23:26:36.382Z,97022.02
2023-05-14T23:29:39.205Z,97003.13
2023-05-14T23:32:44.052Z,96980.44
2023-05-14T23:35:58.841Z,96977.31
2023-05-14T23:39:02.499Z,96993.04
2023-05-14T23:42:05.744Z,96990.77
2023-05-14T23:45:16.409Z,96983.19
2023-05-14T23:48:22.828Z,96971.66
2023-05-14T23:51:38.294Z,96966.10
2023-05-14T23:54:43.045Z,96963.91
2023-05-14T23:57:48.752Z,96958.02
